Terminal Aerodrome Forecast
Issued by NWS Medford, OR

Home | Current Version | Previous Version | Text Only | Print | Product List | Glossary On
Versions: 1 2 3 4 5 6 7 8 9 10 11 12 13 14 15 16 17 18
000
FTUS46 KMFR 241730
TAFMFR
TAF
KMFR 241730Z 2418/2518 VRB03KT P6SM SCT020 BKN090
     FM242200 34013G19KT P6SM VCTS BKN050CB
     FM251000 VRB03KT P6SM OVC025
     FM251400 32006KT P6SM -SHRA OVC015
     FM251500 31007KT P6SM -RA OVC015=

USA.gov is the U.S. government's official web portal to all federal, state and local government web resources and services.